sensor_id;sensor_type;location;lat;lon;timestamp;P1;durP1;ratioP1;P2;durP2;ratioP2
22282;SDS011;11310;51.528;21.204;2023-02-20T00:00:24;11.50;;;3.17;;
22282;SDS011;11310;51.528;21.204;2023-02-20T00:02:55;9.13;;;3.03;;
22282;SDS011;11310;51.528;21.204;2023-02-20T00:05:24;7.50;;;2.92;;
22282;SDS011;11310;51.528;21.204;2023-02-20T00:07:53;8.73;;;2.88;;
22282;SDS011;11310;51.528;21.204;2023-02-20T00:10:23;8.02;;;2.85;;
22282;SDS011;11310;51.528;21.204;2023-02-20T00:12:51;8.30;;;2.85;;
22282;SDS011;11310;51.528;21.204;2023-02-20T00:15:20;11.05;;;3.25;;
22282;SDS011;11310;51.528;21.204;2023-02-20T00:17:49;10.00;;;2.90;;
22282;SDS011;11310;51.528;21.204;2023-02-20T00:20:19;11.18;;;3.13;;
22282;SDS011;11310;51.528;21.204;2023-02-20T00:22:53;12.20;;;3.28;;
22282;SDS011;11310;51.528;21.204;2023-02-20T00:25:23;16.13;;;3.78;;
22282;SDS011;11310;51.528;21.204;2023-02-20T00:27:52;9.75;;;3.42;;
22282;SDS011;11310;51.528;21.204;2023-02-20T00:30:21;12.02;;;3.80;;
22282;SDS011;11310;51.528;21.204;2023-02-20T00:32:52;11.60;;;3.60;;
22282;SDS011;11310;51.528;21.204;2023-02-20T00:35:23;8.17;;;2.80;;
22282;SDS011;11310;51.528;21.204;2023-02-20T00:37:53;15.35;;;3.00;;
22282;SDS011;11310;51.528;21.204;2023-02-20T00:40:24;11.07;;;3.45;;
22282;SDS011;11310;51.528;21.204;2023-02-20T00:42:53;12.30;;;3.45;;
22282;SDS011;11310;51.528;21.204;2023-02-20T00:45:22;10.85;;;3.25;;
22282;SDS011;11310;51.528;21.204;2023-02-20T00:47:51;7.93;;;2.95;;
22282;SDS011;11310;51.528;21.204;2023-02-20T00:50:20;8.40;;;2.88;;
22282;SDS011;11310;51.528;21.204;2023-02-20T00:52:50;10.27;;;3.15;;
22282;SDS011;11310;51.528;21.204;2023-02-20T00:55:18;9.10;;;3.05;;
22282;SDS011;11310;51.528;21.204;2023-02-20T00:57:48;8.40;;;2.88;;
22282;SDS011;11310;51.528;21.204;2023-02-20T01:00:18;8.18;;;2.88;;
22282;SDS011;11310;51.528;21.204;2023-02-20T01:02:48;9.52;;;2.95;;
22282;SDS011;11310;51.528;21.204;2023-02-20T01:05:19;9.30;;;2.80;;
22282;SDS011;11310;51.528;21.204;2023-02-20T01:07:48;10.23;;;2.80;;
22282;SDS011;11310;51.528;21.204;2023-02-20T01:10:17;7.95;;;2.95;;
22282;SDS011;11310;51.528;21.204;2023-02-20T01:12:47;6.50;;;2.58;;
22282;SDS011;11310;51.528;21.204;2023-02-20T01:15:16;8.98;;;3.10;;
22282;SDS011;11310;51.528;21.204;2023-02-20T01:17:45;10.75;;;2.95;;
22282;SDS011;11310;51.528;21.204;2023-02-20T01:20:17;11.80;;;2.92;;
22282;SDS011;11310;51.528;21.204;2023-02-20T01:22:46;13.57;;;3.00;;
22282;SDS011;11310;51.528;21.204;2023-02-20T01:25:16;8.65;;;3.10;;
22282;SDS011;11310;51.528;21.204;2023-02-20T01:27:45;13.02;;;2.85;;
22282;SDS011;11310;51.528;21.204;2023-02-20T01:30:15;9.63;;;2.83;;
22282;SDS011;11310;51.528;21.204;2023-02-20T01:32:44;11.32;;;3.33;;
22282;SDS011;11310;51.528;21.204;2023-02-20T01:35:13;8.05;;;2.97;;
22282;SDS011;11310;51.528;21.204;2023-02-20T01:37:43;9.07;;;2.80;;
22282;SDS011;11310;51.528;21.204;2023-02-20T01:40:13;9.85;;;3.33;;
22282;SDS011;11310;51.528;21.204;2023-02-20T01:42:43;10.75;;;2.90;;
22282;SDS011;11310;51.528;21.204;2023-02-20T01:45:18;8.48;;;2.80;;
22282;SDS011;11310;51.528;21.204;2023-02-20T01:47:57;8.30;;;2.45;;
22282;SDS011;11310;51.528;21.204;2023-02-20T01:50:29;11.00;;;3.30;;
22282;SDS011;11310;51.528;21.204;2023-02-20T01:53:01;9.45;;;2.95;;
22282;SDS011;11310;51.528;21.204;2023-02-20T01:55:35;8.52;;;2.63;;
22282;SDS011;11310;51.528;21.204;2023-02-20T01:58:09;7.00;;;2.47;;
22282;SDS011;11310;51.528;21.204;2023-02-20T02:00:42;9.48;;;2.40;;
22282;SDS011;11310;51.528;21.204;2023-02-20T02:03:17;7.72;;;2.70;;
22282;SDS011;11310;51.528;21.204;2023-02-20T02:05:51;8.82;;;3.08;;
22282;SDS011;11310;51.528;21.204;2023-02-20T02:08:24;10.10;;;3.22;;
22282;SDS011;11310;51.528;21.204;2023-02-20T02:10:56;7.93;;;2.63;;
22282;SDS011;11310;51.528;21.204;2023-02-20T02:13:34;9.57;;;2.65;;
22282;SDS011;11310;51.528;21.204;2023-02-20T02:16:10;11.15;;;3.00;;
22282;SDS011;11310;51.528;21.204;2023-02-20T02:18:51;6.72;;;2.90;;
22282;SDS011;11310;51.528;21.204;2023-02-20T02:24:59;10.13;;;2.88;;
22282;SDS011;11310;51.528;21.204;2023-02-20T02:31:04;12.52;;;3.20;;
22282;SDS011;11310;51.528;21.204;2023-02-20T02:33:58;10.95;;;3.20;;
22282;SDS011;11310;51.528;21.204;2023-02-20T02:36:52;7.75;;;2.58;;
22282;SDS011;11310;51.528;21.204;2023-02-20T02:39:34;8.02;;;2.83;;
22282;SDS011;11310;51.528;21.204;2023-02-20T02:42:12;10.93;;;3.53;;
22282;SDS011;11310;51.528;21.204;2023-02-20T02:44:49;9.98;;;3.10;;
22282;SDS011;11310;51.528;21.204;2023-02-20T02:47:26;9.40;;;2.75;;
22282;SDS011;11310;51.528;21.204;2023-02-20T02:50:01;10.18;;;2.92;;
22282;SDS011;11310;51.528;21.204;2023-02-20T02:52:36;10.68;;;3.17;;
22282;SDS011;11310;51.528;21.204;2023-02-20T02:55:16;9.02;;;3.28;;
22282;SDS011;11310;51.528;21.204;2023-02-20T02:57:47;7.85;;;2.70;;
22282;SDS011;11310;51.528;21.204;2023-02-20T03:00:16;9.18;;;3.30;;
22282;SDS011;11310;51.528;21.204;2023-02-20T03:02:51;12.15;;;3.10;;
22282;SDS011;11310;51.528;21.204;2023-02-20T03:05:27;8.52;;;2.90;;
22282;SDS011;11310;51.528;21.204;2023-02-20T03:08:08;11.55;;;2.92;;
22282;SDS011;11310;51.528;21.204;2023-02-20T03:10:48;9.02;;;2.88;;
22282;SDS011;11310;51.528;21.204;2023-02-20T03:13:23;11.10;;;3.28;;
22282;SDS011;11310;51.528;21.204;2023-02-20T03:16:11;8.35;;;3.22;;
22282;SDS011;11310;51.528;21.204;2023-02-20T03:18:42;8.68;;;2.88;;
22282;SDS011;11310;51.528;21.204;2023-02-20T03:21:17;7.35;;;2.65;;
22282;SDS011;11310;51.528;21.204;2023-02-20T03:23:53;11.15;;;2.97;;
22282;SDS011;11310;51.528;21.204;2023-02-20T03:26:29;9.82;;;3.05;;
22282;SDS011;11310;51.528;21.204;2023-02-20T03:29:04;6.22;;;2.60;;
22282;SDS011;11310;51.528;21.204;2023-02-20T03:31:38;7.72;;;2.83;;
22282;SDS011;11310;51.528;21.204;2023-02-20T03:34:13;9.63;;;3.10;;
22282;SDS011;11310;51.528;21.204;2023-02-20T03:37:05;10.95;;;3.40;;
22282;SDS011;11310;51.528;21.204;2023-02-20T03:39:57;13.20;;;2.95;;
22282;SDS011;11310;51.528;21.204;2023-02-20T03:42:50;9.18;;;2.53;;
22282;SDS011;11310;51.528;21.204;2023-02-20T03:45:41;8.32;;;3.35;;
22282;SDS011;11310;51.528;21.204;2023-02-20T03:48:15;7.03;;;2.53;;
22282;SDS011;11310;51.528;21.204;2023-02-20T03:50:48;8.82;;;3.10;;
22282;SDS011;11310;51.528;21.204;2023-02-20T03:53:44;7.00;;;2.80;;
22282;SDS011;11310;51.528;21.204;2023-02-20T03:56:17;10.95;;;3.00;;
22282;SDS011;11310;51.528;21.204;2023-02-20T03:58:50;7.93;;;2.90;;
22282;SDS011;11310;51.528;21.204;2023-02-20T04:01:22;9.40;;;2.90;;
22282;SDS011;11310;51.528;21.204;2023-02-20T04:03:55;8.32;;;3.17;;
22282;SDS011;11310;51.528;21.204;2023-02-20T04:06:27;8.80;;;2.90;;
22282;SDS011;11310;51.528;21.204;2023-02-20T04:09:01;9.73;;;3.08;;
22282;SDS011;11310;51.528;21.204;2023-02-20T04:11:37;10.27;;;3.35;;
22282;SDS011;11310;51.528;21.204;2023-02-20T04:14:09;9.70;;;3.35;;
22282;SDS011;11310;51.528;21.204;2023-02-20T04:16:41;8.35;;;2.88;;
22282;SDS011;11310;51.528;21.204;2023-02-20T04:19:15;7.63;;;2.60;;
22282;SDS011;11310;51.528;21.204;2023-02-20T04:21:47;10.43;;;3.28;;
22282;SDS011;11310;51.528;21.204;2023-02-20T04:24:20;9.57;;;2.75;;
22282;SDS011;11310;51.528;21.204;2023-02-20T04:26:55;8.73;;;2.97;;
22282;SDS011;11310;51.528;21.204;2023-02-20T04:29:26;8.45;;;2.50;;
22282;SDS011;11310;51.528;21.204;2023-02-20T04:31:56;8.20;;;2.53;;
22282;SDS011;11310;51.528;21.204;2023-02-20T04:34:31;7.85;;;2.13;;
22282;SDS011;11310;51.528;21.204;2023-02-20T04:39:35;10.38;;;2.80;;
22282;SDS011;11310;51.528;21.204;2023-02-20T04:42:06;7.20;;;2.90;;
22282;SDS011;11310;51.528;21.204;2023-02-20T04:44:38;10.23;;;2.80;;
22282;SDS011;11310;51.528;21.204;2023-02-20T04:47:12;12.18;;;3.17;;
22282;SDS011;11310;51.528;21.204;2023-02-20T04:49:45;7.88;;;2.65;;
22282;SDS011;11310;51.528;21.204;2023-02-20T04:52:19;6.28;;;2.30;;
22282;SDS011;11310;51.528;21.204;2023-02-20T04:54:52;7.60;;;2.60;;
22282;SDS011;11310;51.528;21.204;2023-02-20T04:57:22;10.23;;;2.70;;
22282;SDS011;11310;51.528;21.204;2023-02-20T04:59:52;9.23;;;2.30;;
22282;SDS011;11310;51.528;21.204;2023-02-20T05:02:21;8.68;;;2.50;;
22282;SDS011;11310;51.528;21.204;2023-02-20T05:04:51;6.75;;;2.33;;
22282;SDS011;11310;51.528;21.204;2023-02-20T05:07:20;7.78;;;2.80;;
22282;SDS011;11310;51.528;21.204;2023-02-20T05:09:49;8.90;;;2.42;;
22282;SDS011;11310;51.528;21.204;2023-02-20T05:12:18;8.10;;;3.00;;
22282;SDS011;11310;51.528;21.204;2023-02-20T05:14:47;6.82;;;2.30;;
22282;SDS011;11310;51.528;21.204;2023-02-20T05:17:15;6.40;;;2.13;;
22282;SDS011;11310;51.528;21.204;2023-02-20T05:19:44;8.13;;;2.58;;
22282;SDS011;11310;51.528;21.204;2023-02-20T05:22:13;5.95;;;2.40;;
22282;SDS011;11310;51.528;21.204;2023-02-20T05:24:47;9.40;;;2.70;;
22282;SDS011;11310;51.528;21.204;2023-02-20T05:27:18;8.93;;;2.95;;
22282;SDS011;11310;51.528;21.204;2023-02-20T05:34:51;6.35;;;2.00;;
22282;SDS011;11310;51.528;21.204;2023-02-20T05:37:22;7.07;;;2.03;;
22282;SDS011;11310;51.528;21.204;2023-02-20T05:39:52;6.03;;;2.17;;
22282;SDS011;11310;51.528;21.204;2023-02-20T05:42:21;5.75;;;2.38;;
22282;SDS011;11310;51.528;21.204;2023-02-20T05:44:50;10.05;;;2.45;;
22282;SDS011;11310;51.528;21.204;2023-02-20T05:47:19;7.75;;;1.80;;
22282;SDS011;11310;51.528;21.204;2023-02-20T05:49:48;5.10;;;2.10;;
22282;SDS011;11310;51.528;21.204;2023-02-20T05:52:17;6.28;;;2.30;;
22282;SDS011;11310;51.528;21.204;2023-02-20T05:54:45;6.38;;;1.88;;
22282;SDS011;11310;51.528;21.204;2023-02-20T05:57:15;6.55;;;2.10;;
22282;SDS011;11310;51.528;21.204;2023-02-20T05:59:43;6.05;;;2.10;;
22282;SDS011;11310;51.528;21.204;2023-02-20T06:02:15;5.93;;;2.08;;
22282;SDS011;11310;51.528;21.204;2023-02-20T06:04:46;8.20;;;2.30;;
22282;SDS011;11310;51.528;21.204;2023-02-20T06:07:15;4.63;;;1.88;;
22282;SDS011;11310;51.528;21.204;2023-02-20T06:09:44;5.10;;;2.03;;
22282;SDS011;11310;51.528;21.204;2023-02-20T06:12:12;8.05;;;2.00;;
22282;SDS011;11310;51.528;21.204;2023-02-20T06:14:41;5.90;;;2.10;;
22282;SDS011;11310;51.528;21.204;2023-02-20T06:17:11;7.00;;;2.05;;
22282;SDS011;11310;51.528;21.204;2023-02-20T06:19:41;6.65;;;1.90;;
22282;SDS011;11310;51.528;21.204;2023-02-20T06:22:09;5.95;;;1.88;;
22282;SDS011;11310;51.528;21.204;2023-02-20T06:24:38;7.07;;;2.22;;
22282;SDS011;11310;51.528;21.204;2023-02-20T06:27:07;8.60;;;2.05;;
22282;SDS011;11310;51.528;21.204;2023-02-20T06:29:36;3.85;;;1.73;;
22282;SDS011;11310;51.528;21.204;2023-02-20T06:32:05;8.73;;;2.20;;
22282;SDS011;11310;51.528;21.204;2023-02-20T06:34:35;8.85;;;2.13;;
22282;SDS011;11310;51.528;21.204;2023-02-20T06:37:07;6.63;;;1.93;;
22282;SDS011;11310;51.528;21.204;2023-02-20T06:39:37;7.63;;;2.38;;
22282;SDS011;11310;51.528;21.204;2023-02-20T06:42:06;8.18;;;2.30;;
22282;SDS011;11310;51.528;21.204;2023-02-20T06:44:36;7.88;;;2.40;;
22282;SDS011;11310;51.528;21.204;2023-02-20T06:47:05;6.32;;;2.05;;
22282;SDS011;11310;51.528;21.204;2023-02-20T06:49:35;6.35;;;2.20;;
22282;SDS011;11310;51.528;21.204;2023-02-20T06:52:09;6.90;;;2.55;;
22282;SDS011;11310;51.528;21.204;2023-02-20T06:54:40;7.10;;;2.03;;
22282;SDS011;11310;51.528;21.204;2023-02-20T06:57:09;5.93;;;2.33;;
22282;SDS011;11310;51.528;21.204;2023-02-20T06:59:40;7.82;;;2.05;;
22282;SDS011;11310;51.528;21.204;2023-02-20T07:02:15;8.90;;;2.42;;
22282;SDS011;11310;51.528;21.204;2023-02-20T07:04:53;5.90;;;2.03;;
22282;SDS011;11310;51.528;21.204;2023-02-20T07:07:26;8.57;;;2.28;;
22282;SDS011;11310;51.528;21.204;2023-02-20T07:09:55;7.63;;;2.30;;
22282;SDS011;11310;51.528;21.204;2023-02-20T07:12:28;4.90;;;1.40;;
22282;SDS011;11310;51.528;21.204;2023-02-20T07:14:58;6.68;;;1.90;;
22282;SDS011;11310;51.528;21.204;2023-02-20T07:17:28;8.15;;;2.28;;
22282;SDS011;11310;51.528;21.204;2023-02-20T07:19:57;9.20;;;2.17;;
22282;SDS011;11310;51.528;21.204;2023-02-20T07:22:27;8.10;;;2.10;;
22282;SDS011;11310;51.528;21.204;2023-02-20T07:24:55;7.22;;;2.13;;
22282;SDS011;11310;51.528;21.204;2023-02-20T07:27:24;4.80;;;2.05;;
22282;SDS011;11310;51.528;21.204;2023-02-20T07:29:53;6.05;;;1.92;;
22282;SDS011;11310;51.528;21.204;2023-02-20T07:32:21;7.30;;;2.13;;
22282;SDS011;11310;51.528;21.204;2023-02-20T07:34:50;6.57;;;2.50;;
22282;SDS011;11310;51.528;21.204;2023-02-20T07:37:32;6.27;;;2.20;;
22282;SDS011;11310;51.528;21.204;2023-02-20T07:40:01;5.63;;;2.25;;
22282;SDS011;11310;51.528;21.204;2023-02-20T07:42:30;8.30;;;2.50;;
22282;SDS011;11310;51.528;21.204;2023-02-20T07:45:09;9.18;;;2.10;;
22282;SDS011;11310;51.528;21.204;2023-02-20T07:47:38;7.47;;;2.08;;
22282;SDS011;11310;51.528;21.204;2023-02-20T07:50:07;5.57;;;2.20;;
22282;SDS011;11310;51.528;21.204;2023-02-20T07:52:38;6.22;;;2.40;;
22282;SDS011;11310;51.528;21.204;2023-02-20T07:55:06;5.38;;;2.00;;
22282;SDS011;11310;51.528;21.204;2023-02-20T07:57:35;7.38;;;2.25;;
22282;SDS011;11310;51.528;21.204;2023-02-20T08:00:05;4.90;;;1.80;;
22282;SDS011;11310;51.528;21.204;2023-02-20T08:02:38;6.72;;;2.38;;
22282;SDS011;11310;51.528;21.204;2023-02-20T08:05:06;5.35;;;2.15;;
22282;SDS011;11310;51.528;21.204;2023-02-20T08:07:37;6.63;;;2.00;;
22282;SDS011;11310;51.528;21.204;2023-02-20T08:10:10;7.53;;;2.17;;
22282;SDS011;11310;51.528;21.204;2023-02-20T08:12:39;5.80;;;2.15;;
22282;SDS011;11310;51.528;21.204;2023-02-20T08:15:08;6.97;;;2.47;;
22282;SDS011;11310;51.528;21.204;2023-02-20T08:17:37;5.80;;;2.05;;
22282;SDS011;11310;51.528;21.204;2023-02-20T08:20:13;5.78;;;2.03;;
22282;SDS011;11310;51.528;21.204;2023-02-20T08:22:44;7.60;;;2.10;;
22282;SDS011;11310;51.528;21.204;2023-02-20T08:25:14;5.38;;;1.80;;
22282;SDS011;11310;51.528;21.204;2023-02-20T08:27:43;6.00;;;2.17;;
22282;SDS011;11310;51.528;21.204;2023-02-20T08:30:14;7.32;;;2.30;;
22282;SDS011;11310;51.528;21.204;2023-02-20T08:32:45;6.18;;;2.30;;
22282;SDS011;11310;51.528;21.204;2023-02-20T08:35:15;6.82;;;2.15;;
22282;SDS011;11310;51.528;21.204;2023-02-20T08:37:45;12.13;;;2.60;;
22282;SDS011;11310;51.528;21.204;2023-02-20T08:40:14;12.40;;;2.63;;
22282;SDS011;11310;51.528;21.204;2023-02-20T08:42:43;8.60;;;2.20;;
22282;SDS011;11310;51.528;21.204;2023-02-20T08:45:12;7.80;;;2.55;;
22282;SDS011;11310;51.528;21.204;2023-02-20T08:47:41;8.23;;;2.00;;
22282;SDS011;11310;51.528;21.204;2023-02-20T08:50:11;6.65;;;2.42;;
22282;SDS011;11310;51.528;21.204;2023-02-20T08:52:40;7.68;;;3.00;;
22282;SDS011;11310;51.528;21.204;2023-02-20T08:55:10;7.80;;;2.35;;
22282;SDS011;11310;51.528;21.204;2023-02-20T08:57:41;5.07;;;2.10;;
22282;SDS011;11310;51.528;21.204;2023-02-20T09:00:12;9.68;;;2.40;;
22282;SDS011;11310;51.528;21.204;2023-02-20T09:02:43;7.18;;;2.20;;
22282;SDS011;11310;51.528;21.204;2023-02-20T09:05:13;7.05;;;2.45;;
22282;SDS011;11310;51.528;21.204;2023-02-20T09:07:42;8.07;;;2.03;;
22282;SDS011;11310;51.528;21.204;2023-02-20T09:10:12;8.45;;;2.22;;
22282;SDS011;11310;51.528;21.204;2023-02-20T09:12:41;5.30;;;2.00;;
22282;SDS011;11310;51.528;21.204;2023-02-20T09:15:10;6.05;;;1.92;;
22282;SDS011;11310;51.528;21.204;2023-02-20T09:17:39;7.60;;;2.20;;
22282;SDS011;11310;51.528;21.204;2023-02-20T09:20:08;5.30;;;2.03;;
22282;SDS011;11310;51.528;21.204;2023-02-20T09:22:37;6.22;;;2.00;;
22282;SDS011;11310;51.528;21.204;2023-02-20T09:25:05;5.50;;;1.90;;
22282;SDS011;11310;51.528;21.204;2023-02-20T09:27:36;12.95;;;2.20;;
22282;SDS011;11310;51.528;21.204;2023-02-20T09:30:06;11.50;;;2.08;;
22282;SDS011;11310;51.528;21.204;2023-02-20T09:32:36;7.07;;;2.23;;
22282;SDS011;11310;51.528;21.204;2023-02-20T09:35:05;8.52;;;2.33;;
22282;SDS011;11310;51.528;21.204;2023-02-20T09:37:33;5.57;;;1.90;;
22282;SDS011;11310;51.528;21.204;2023-02-20T09:40:03;5.65;;;2.30;;
22282;SDS011;11310;51.528;21.204;2023-02-20T09:42:33;6.43;;;1.95;;
22282;SDS011;11310;51.528;21.204;2023-02-20T09:45:11;6.22;;;1.38;;
22282;SDS011;11310;51.528;21.204;2023-02-20T09:47:49;7.32;;;2.20;;
22282;SDS011;11310;51.528;21.204;2023-02-20T09:50:33;5.65;;;2.38;;
22282;SDS011;11310;51.528;21.204;2023-02-20T09:53:07;7.15;;;2.28;;
22282;SDS011;11310;51.528;21.204;2023-02-20T09:55:45;5.53;;;1.55;;
22282;SDS011;11310;51.528;21.204;2023-02-20T09:58:22;6.30;;;1.80;;
22282;SDS011;11310;51.528;21.204;2023-02-20T10:00:57;7.53;;;2.30;;
22282;SDS011;11310;51.528;21.204;2023-02-20T10:03:31;4.35;;;1.77;;
22282;SDS011;11310;51.528;21.204;2023-02-20T10:06:08;6.45;;;1.90;;
22282;SDS011;11310;51.528;21.204;2023-02-20T10:08:43;5.00;;;2.13;;
22282;SDS011;11310;51.528;21.204;2023-02-20T10:11:16;9.65;;;2.63;;
22282;SDS011;11310;51.528;21.204;2023-02-20T10:13:56;5.18;;;1.98;;
22282;SDS011;11310;51.528;21.204;2023-02-20T10:16:31;5.78;;;1.95;;
22282;SDS011;11310;51.528;21.204;2023-02-20T10:19:11;9.38;;;2.28;;
22282;SDS011;11310;51.528;21.204;2023-02-20T10:21:48;6.13;;;1.92;;
22282;SDS011;11310;51.528;21.204;2023-02-20T10:24:33;7.25;;;2.22;;
22282;SDS011;11310;51.528;21.204;2023-02-20T10:27:15;6.80;;;2.75;;
22282;SDS011;11310;51.528;21.204;2023-02-20T10:29:53;4.72;;;2.13;;
22282;SDS011;11310;51.528;21.204;2023-02-20T10:32:24;9.27;;;2.50;;
22282;SDS011;11310;51.528;21.204;2023-02-20T10:35:00;4.57;;;2.22;;
22282;SDS011;11310;51.528;21.204;2023-02-20T10:37:33;6.28;;;2.25;;
22282;SDS011;11310;51.528;21.204;2023-02-20T10:40:16;8.60;;;2.50;;
22282;SDS011;11310;51.528;21.204;2023-02-20T10:42:53;7.05;;;2.47;;
22282;SDS011;11310;51.528;21.204;2023-02-20T10:45:32;6.32;;;2.55;;
22282;SDS011;11310;51.528;21.204;2023-02-20T10:48:10;8.85;;;2.65;;
22282;SDS011;11310;51.528;21.204;2023-02-20T10:50:42;8.25;;;2.60;;
22282;SDS011;11310;51.528;21.204;2023-02-20T10:53:22;8.10;;;2.80;;
22282;SDS011;11310;51.528;21.204;2023-02-20T10:55:59;7.90;;;2.33;;
22282;SDS011;11310;51.528;21.204;2023-02-20T10:58:32;7.50;;;2.35;;
22282;SDS011;11310;51.528;21.204;2023-02-20T11:01:08;8.50;;;3.08;;
22282;SDS011;11310;51.528;21.204;2023-02-20T11:03:42;7.97;;;3.20;;
22282;SDS011;11310;51.528;21.204;2023-02-20T11:06:16;8.20;;;3.58;;
22282;SDS011;11310;51.528;21.204;2023-02-20T11:08:48;8.88;;;3.33;;
22282;SDS011;11310;51.528;21.204;2023-02-20T11:11:21;6.53;;;2.78;;
22282;SDS011;11310;51.528;21.204;2023-02-20T11:13:53;8.45;;;3.50;;
22282;SDS011;11310;51.528;21.204;2023-02-20T11:16:25;9.32;;;3.70;;
22282;SDS011;11310;51.528;21.204;2023-02-20T11:19:03;6.88;;;2.92;;
22282;SDS011;11310;51.528;21.204;2023-02-20T11:21:39;6.03;;;2.78;;
22282;SDS011;11310;51.528;21.204;2023-02-20T11:27:04;5.97;;;2.88;;
22282;SDS011;11310;51.528;21.204;2023-02-20T11:29:36;12.93;;;3.00;;
22282;SDS011;11310;51.528;21.204;2023-02-20T11:32:22;6.28;;;3.08;;
22282;SDS011;11310;51.528;21.204;2023-02-20T11:35:13;7.50;;;2.85;;
22282;SDS011;11310;51.528;21.204;2023-02-20T11:37:50;6.20;;;3.00;;
22282;SDS011;11310;51.528;21.204;2023-02-20T11:40:40;7.65;;;3.15;;
22282;SDS011;11310;51.528;21.204;2023-02-20T11:43:13;9.30;;;3.15;;
22282;SDS011;11310;51.528;21.204;2023-02-20T11:45:46;7.55;;;3.40;;
22282;SDS011;11310;51.528;21.204;2023-02-20T11:48:17;7.05;;;2.92;;
22282;SDS011;11310;51.528;21.204;2023-02-20T11:50:47;8.63;;;3.53;;
22282;SDS011;11310;51.528;21.204;2023-02-20T11:53:18;9.88;;;3.75;;
22282;SDS011;11310;51.528;21.204;2023-02-20T11:56:06;9.93;;;3.45;;
22282;SDS011;11310;51.528;21.204;2023-02-20T11:58:36;7.22;;;3.28;;
22282;SDS011;11310;51.528;21.204;2023-02-20T12:01:06;7.82;;;3.63;;
22282;SDS011;11310;51.528;21.204;2023-02-20T12:03:57;10.57;;;3.65;;
22282;SDS011;11310;51.528;21.204;2023-02-20T12:06:37;10.20;;;3.35;;
22282;SDS011;11310;51.528;21.204;2023-02-20T12:11:39;8.57;;;3.15;;
22282;SDS011;11310;51.528;21.204;2023-02-20T12:14:09;8.88;;;3.55;;
22282;SDS011;11310;51.528;21.204;2023-02-20T12:19:39;7.35;;;3.35;;
22282;SDS011;11310;51.528;21.204;2023-02-20T12:22:20;8.65;;;3.40;;
22282;SDS011;11310;51.528;21.204;2023-02-20T12:24:59;9.23;;;3.63;;
22282;SDS011;11310;51.528;21.204;2023-02-20T12:27:45;9.88;;;4.15;;
22282;SDS011;11310;51.528;21.204;2023-02-20T12:30:26;9.43;;;3.58;;
22282;SDS011;11310;51.528;21.204;2023-02-20T12:33:15;9.05;;;3.50;;
22282;SDS011;11310;51.528;21.204;2023-02-20T12:35:56;9.95;;;3.17;;
22282;SDS011;11310;51.528;21.204;2023-02-20T12:38:38;8.48;;;3.85;;
22282;SDS011;11310;51.528;21.204;2023-02-20T12:41:21;9.48;;;4.18;;
22282;SDS011;11310;51.528;21.204;2023-02-20T12:44:08;9.07;;;4.15;;
22282;SDS011;11310;51.528;21.204;2023-02-20T12:46:53;9.57;;;3.50;;
22282;SDS011;11310;51.528;21.204;2023-02-20T12:49:41;9.05;;;3.38;;
22282;SDS011;11310;51.528;21.204;2023-02-20T12:52:35;7.60;;;3.88;;
22282;SDS011;11310;51.528;21.204;2023-02-20T12:55:20;7.90;;;3.35;;
22282;SDS011;11310;51.528;21.204;2023-02-20T12:57:53;7.32;;;3.30;;
22282;SDS011;11310;51.528;21.204;2023-02-20T13:00:35;7.80;;;3.67;;
22282;SDS011;11310;51.528;21.204;2023-02-20T13:03:08;7.63;;;3.30;;
22282;SDS011;11310;51.528;21.204;2023-02-20T13:05:43;6.80;;;3.47;;
22282;SDS011;11310;51.528;21.204;2023-02-20T13:08:17;8.50;;;4.20;;
22282;SDS011;11310;51.528;21.204;2023-02-20T13:10:54;9.93;;;3.47;;
22282;SDS011;11310;51.528;21.204;2023-02-20T13:13:30;8.23;;;3.67;;
22282;SDS011;11310;51.528;21.204;2023-02-20T13:16:06;8.15;;;3.42;;
22282;SDS011;11310;51.528;21.204;2023-02-20T13:18:42;6.70;;;3.40;;
22282;SDS011;11310;51.528;21.204;2023-02-20T13:21:16;9.15;;;3.50;;
22282;SDS011;11310;51.528;21.204;2023-02-20T13:23:52;8.52;;;4.00;;
22282;SDS011;11310;51.528;21.204;2023-02-20T13:26:54;11.02;;;4.13;;
22282;SDS011;11310;51.528;21.204;2023-02-20T13:29:25;6.10;;;2.95;;
22282;SDS011;11310;51.528;21.204;2023-02-20T13:31:56;7.95;;;3.70;;
22282;SDS011;11310;51.528;21.204;2023-02-20T13:34:28;8.90;;;3.17;;
22282;SDS011;11310;51.528;21.204;2023-02-20T13:37:00;11.57;;;3.75;;
22282;SDS011;11310;51.528;21.204;2023-02-20T13:42:28;7.53;;;3.63;;
22282;SDS011;11310;51.528;21.204;2023-02-20T13:45:02;9.32;;;4.13;;
22282;SDS011;11310;51.528;21.204;2023-02-20T13:48:19;10.30;;;4.20;;
22282;SDS011;11310;51.528;21.204;2023-02-20T13:56:55;7.78;;;3.20;;
22282;SDS011;11310;51.528;21.204;2023-02-20T13:59:29;10.05;;;4.20;;
22282;SDS011;11310;51.528;21.204;2023-02-20T14:02:03;9.43;;;3.92;;
22282;SDS011;11310;51.528;21.204;2023-02-20T14:04:52;8.27;;;3.85;;
22282;SDS011;11310;51.528;21.204;2023-02-20T14:07:26;10.68;;;3.67;;
22282;SDS011;11310;51.528;21.204;2023-02-20T14:09:59;9.57;;;4.05;;
22282;SDS011;11310;51.528;21.204;2023-02-20T14:12:29;9.23;;;3.92;;
22282;SDS011;11310;51.528;21.204;2023-02-20T14:14:58;9.02;;;3.70;;
22282;SDS011;11310;51.528;21.204;2023-02-20T14:17:33;7.18;;;3.38;;
22282;SDS011;11310;51.528;21.204;2023-02-20T14:20:06;8.30;;;3.75;;
22282;SDS011;11310;51.528;21.204;2023-02-20T14:22:46;7.72;;;3.65;;
22282;SDS011;11310;51.528;21.204;2023-02-20T14:28:06;9.18;;;3.58;;
22282;SDS011;11310;51.528;21.204;2023-02-20T14:30:38;8.32;;;3.53;;
22282;SDS011;11310;51.528;21.204;2023-02-20T14:33:19;7.78;;;3.15;;
22282;SDS011;11310;51.528;21.204;2023-02-20T14:35:56;9.73;;;3.80;;
22282;SDS011;11310;51.528;21.204;2023-02-20T14:38:37;7.57;;;3.47;;
22282;SDS011;11310;51.528;21.204;2023-02-20T14:41:18;9.90;;;3.47;;
22282;SDS011;11310;51.528;21.204;2023-02-20T14:43:52;6.03;;;2.90;;
22282;SDS011;11310;51.528;21.204;2023-02-20T14:46:25;7.70;;;3.17;;
22282;SDS011;11310;51.528;21.204;2023-02-20T14:49:26;7.20;;;3.42;;
22282;SDS011;11310;51.528;21.204;2023-02-20T14:52:15;10.23;;;3.72;;
22282;SDS011;11310;51.528;21.204;2023-02-20T14:55:02;7.93;;;3.20;;
22282;SDS011;11310;51.528;21.204;2023-02-20T14:57:44;9.10;;;3.63;;
22282;SDS011;11310;51.528;21.204;2023-02-20T15:00:34;7.55;;;3.47;;
22282;SDS011;11310;51.528;21.204;2023-02-20T15:03:18;8.88;;;3.90;;
22282;SDS011;11310;51.528;21.204;2023-02-20T15:06:03;8.18;;;3.63;;
22282;SDS011;11310;51.528;21.204;2023-02-20T15:08:55;9.50;;;3.50;;
22282;SDS011;11310;51.528;21.204;2023-02-20T15:11:51;7.28;;;3.40;;
22282;SDS011;11310;51.528;21.204;2023-02-20T15:14:31;8.88;;;3.80;;
22282;SDS011;11310;51.528;21.204;2023-02-20T15:17:19;10.55;;;4.00;;
22282;SDS011;11310;51.528;21.204;2023-02-20T15:19:57;13.10;;;3.83;;
22282;SDS011;11310;51.528;21.204;2023-02-20T15:22:54;9.18;;;3.95;;
22282;SDS011;11310;51.528;21.204;2023-02-20T15:25:47;10.00;;;3.40;;
22282;SDS011;11310;51.528;21.204;2023-02-20T15:28:32;9.80;;;4.00;;
22282;SDS011;11310;51.528;21.204;2023-02-20T15:34:17;7.18;;;3.33;;
22282;SDS011;11310;51.528;21.204;2023-02-20T15:37:10;9.68;;;3.65;;
22282;SDS011;11310;51.528;21.204;2023-02-20T15:40:25;9.10;;;3.40;;
22282;SDS011;11310;51.528;21.204;2023-02-20T15:43:07;7.90;;;2.95;;
22282;SDS011;11310;51.528;21.204;2023-02-20T15:46:18;9.27;;;3.77;;
22282;SDS011;11310;51.528;21.204;2023-02-20T15:49:01;9.85;;;3.85;;
22282;SDS011;11310;51.528;21.204;2023-02-20T15:51:51;10.52;;;3.85;;
22282;SDS011;11310;51.528;21.204;2023-02-20T15:54:37;9.82;;;3.72;;